createdAt,value
2022-09-15T00:00:34.595Z,99411.48
2022-09-15T00:03:04.846Z,99405.13
2022-09-15T00:05:35.091Z,99412.03
2022-09-15T00:08:06.069Z,99413.53
2022-09-15T00:10:37.845Z,99413.53
2022-09-15T00:13:08.378Z,99410.52
2022-09-15T00:15:38.638Z,99408.34
2022-09-15T00:18:08.910Z,99402.20
2022-09-15T00:20:43.973Z,99403.45
2022-09-15T00:23:16.224Z,99409.88
2022-09-15T00:25:49.230Z,99404.08
2022-09-15T00:28:23.628Z,99396.28
2022-09-15T00:30:56.939Z,99406.95
2022-09-15T00:33:27.344Z,99406.95
2022-09-15T00:35:59.322Z,99403.28
2022-09-15T00:38:29.616Z,99399.08
2022-09-15T00:41:01.415Z,99403.27
2022-09-15T00:44:02.861Z,99402.84
2022-09-15T00:46:39.547Z,99402.84
2022-09-15T00:49:28.347Z,99400.91
2022-09-15T00:52:04.680Z,99400.48
2022-09-15T00:55:11.617Z,99402.95
2022-09-15T00:57:51.739Z,99402.95
2022-09-15T01:00:24.839Z,99401.95
2022-09-15T01:02:58.569Z,99401.95
2022-09-15T01:05:49.496Z,99398.13
2022-09-15T01:08:35.187Z,99398.13
2022-09-15T01:11:05.656Z,99386.66
2022-09-15T01:13:38.485Z,99382.67
2022-09-15T01:16:22.384Z,99387.23
2022-09-15T01:18:58.052Z,99387.23
2022-09-15T01:21:36.997Z,99380.89
2022-09-15T01:24:25.368Z,99370.85
2022-09-15T01:30:14.495Z,99371.14
2022-09-15T01:32:53.505Z,99361.66
2022-09-15T01:35:32.125Z,99366.77
2022-09-15T01:38:07.861Z,99373.52
2022-09-15T01:40:43.907Z,99371.55
2022-09-15T01:43:16.734Z,99360.09
2022-09-15T01:45:50.044Z,99367.89
2022-09-15T01:48:23.940Z,99362.02
2022-09-15T01:50:59.755Z,99360.66
2022-09-15T01:53:30.348Z,99355.78
2022-09-15T01:56:13.052Z,99355.78
2022-09-15T01:58:44.264Z,99339.13
2022-09-15T02:01:25.711Z,99339.55
2022-09-15T02:03:59.009Z,99334.14
2022-09-15T02:06:47.262Z,99334.14
2022-09-15T02:09:26.610Z,99332.53
2022-09-15T02:12:16.413Z,99334.58
2022-09-15T02:14:59.143Z,99322.02
2022-09-15T02:17:31.639Z,99335.67
2022-09-15T02:20:10.824Z,99333.55
2022-09-15T02:22:44.039Z,99325.95
2022-09-15T02:25:17.396Z,99328.02
2022-09-15T02:27:50.653Z,99328.02
2022-09-15T02:30:22.475Z,99336.40
2022-09-15T02:32:58.693Z,99336.40
2022-09-15T02:35:32.261Z,99336.14
2022-09-15T02:38:04.789Z,99332.46
2022-09-15T02:40:36.876Z,99332.46
2022-09-15T02:43:10.572Z,99330.41
2022-09-15T02:45:41.839Z,99330.41
2022-09-15T02:48:12.390Z,99325.57
2022-09-15T02:50:42.696Z,99325.57
2022-09-15T02:53:13.112Z,99320.67
2022-09-15T02:55:43.637Z,99320.67
2022-09-15T02:58:13.788Z,99317.98
2022-09-15T03:00:44.307Z,99312.92
2022-09-15T03:03:14.610Z,99315.32
2022-09-15T03:05:45.609Z,99309.39
2022-09-15T03:08:16.052Z,99309.39
2022-09-15T03:10:46.317Z,99303.80
2022-09-15T03:13:16.561Z,99294.33
2022-09-15T03:15:47.104Z,99286.55
2022-09-15T03:18:17.981Z,99281.31
2022-09-15T03:20:48.143Z,99281.31
2022-09-15T03:23:18.413Z,99289.24
2022-09-15T03:25:48.723Z,99285.17
2022-09-15T03:28:18.925Z,99288.67
2022-09-15T03:30:49.134Z,99290.44
2022-09-15T03:33:19.656Z,99286.22
2022-09-15T03:35:51.932Z,99286.22
2022-09-15T03:38:22.878Z,99280.58
2022-09-15T03:41:09.504Z,99280.40
2022-09-15T03:43:45.255Z,99280.40
2022-09-15T03:46:15.796Z,99271.75
2022-09-15T03:48:46.769Z,99282.08
2022-09-15T03:51:17.198Z,99282.08
2022-09-15T03:53:47.599Z,99273.16
2022-09-15T03:56:29.946Z,99273.16
2022-09-15T03:59:02.435Z,99254.55
2022-09-15T04:01:33.640Z,99255.67
2022-09-15T04:04:04.634Z,99266.30
2022-09-15T04:06:35.309Z,99262.95
2022-09-15T04:09:09.379Z,99256.63
2022-09-15T04:11:40.018Z,99258.91
2022-09-15T04:14:10.372Z,99263.60
2022-09-15T04:16:41.286Z,99263.60
2022-09-15T04:19:11.839Z,99258.83
2022-09-15T04:21:42.136Z,99262.14
2022-09-15T04:24:12.529Z,99262.14
2022-09-15T04:26:43.554Z,99254.48
2022-09-15T04:29:16.308Z,99255.23
2022-09-15T04:31:46.874Z,99240.33
2022-09-15T04:34:23.050Z,99241.11
2022-09-15T04:36:53.952Z,99250.42
2022-09-15T04:39:24.839Z,99250.42
2022-09-15T04:41:55.221Z,99253.11
2022-09-15T04:44:25.638Z,99253.48
2022-09-15T04:46:56.199Z,99247.86
2022-09-15T04:49:29.693Z,99257.39
2022-09-15T04:52:00.295Z,99257.39
2022-09-15T04:54:34.966Z,99256.56
2022-09-15T04:57:07.174Z,99251.97
2022-09-15T04:59:40.161Z,99251.97
2022-09-15T05:02:10.685Z,99245.81
2022-09-15T05:04:43.427Z,99245.81
2022-09-15T05:07:14.064Z,99249.61
2022-09-15T05:09:45.772Z,99257.88
2022-09-15T05:12:19.957Z,99257.88
2022-09-15T05:14:53.729Z,99247.23
2022-09-15T05:17:28.674Z,99255.27
2022-09-15T05:20:00.124Z,99255.27
2022-09-15T05:22:31.778Z,99253.06
2022-09-15T05:25:08.516Z,99253.06
2022-09-15T05:27:38.946Z,99263.17
2022-09-15T05:30:36.020Z,99262.05
2022-09-15T05:32:42.588Z,99264.25
2022-09-15T05:35:14.694Z,99268.79
2022-09-15T05:37:45.117Z,99268.79
2022-09-15T05:40:15.584Z,99258.94
2022-09-15T05:42:46.503Z,99258.94
2022-09-15T05:45:17.017Z,99257.52
2022-09-15T05:47:47.298Z,99252.27
2022-09-15T05:50:17.723Z,99252.27
2022-09-15T05:52:55.445Z,99252.66
2022-09-15T05:55:28.332Z,99252.06
2022-09-15T05:58:04.565Z,99250.46
2022-09-15T06:00:35.740Z,99248.45
2022-09-15T06:03:06.805Z,99244.03
2022-09-15T06:05:40.885Z,99244.03
2022-09-15T06:08:11.679Z,99245.63
2022-09-15T06:10:44.802Z,99240.59
2022-09-15T06:13:18.380Z,99239.81
2022-09-15T06:15:48.854Z,99239.81
2022-09-15T06:18:21.002Z,99245.66
2022-09-15T06:20:52.876Z,99232.75
2022-09-15T06:23:25.967Z,99222.30
2022-09-15T06:26:07.146Z,99218.42
2022-09-15T06:28:38.528Z,99218.20
2022-09-15T06:31:16.722Z,99229.64
2022-09-15T06:33:50.396Z,99229.64
2022-09-15T06:36:22.570Z,99231.46
2022-09-15T06:38:55.895Z,99227.49
2022-09-15T06:41:47.390Z,99227.49
2022-09-15T06:43:59.012Z,99246.56
2022-09-15T06:46:29.365Z,99235.30
2022-09-15T06:49:00.412Z,99236.86
2022-09-15T06:51:31.351Z,99233.61
2022-09-15T06:54:03.569Z,99230.45
2022-09-15T06:56:37.841Z,99216.89
2022-09-15T06:59:06.688Z,99221.36
2022-09-15T07:01:37.062Z,99221.27
2022-09-15T07:04:08.778Z,99216.84
2022-09-15T07:06:42.540Z,99219.91
2022-09-15T07:09:12.920Z,99239.03
2022-09-15T07:11:43.877Z,99239.03
2022-09-15T07:14:14.661Z,99223.55
2022-09-15T07:16:46.372Z,99223.55
2022-09-15T07:19:16.696Z,99223.25
2022-09-15T07:21:49.722Z,99219.47
2022-09-15T07:24:20.438Z,99219.47
2022-09-15T07:26:53.705Z,99212.98
2022-09-15T07:29:26.318Z,99201.08
2022-09-15T07:32:00.473Z,99194.39
2022-09-15T07:34:30.779Z,99203.84
2022-09-15T07:37:01.128Z,99203.84
2022-09-15T07:39:31.435Z,99204.00
2022-09-15T07:42:01.863Z,99196.06
2022-09-15T07:44:32.530Z,99203.20
2022-09-15T07:47:03.179Z,99203.20
2022-09-15T07:49:33.593Z,99192.05
2022-09-15T07:52:07.506Z,99196.25
2022-09-15T07:55:05.905Z,99186.56
2022-09-15T07:57:43.703Z,99183.35
2022-09-15T08:00:14.357Z,99183.35
2022-09-15T08:02:44.886Z,99175.98
2022-09-15T08:05:15.423Z,99178.68
2022-09-15T08:07:46.205Z,99167.23
2022-09-15T08:10:17.336Z,99164.22
2022-09-15T08:12:49.343Z,99176.47
2022-09-15T08:15:19.895Z,99176.47
2022-09-15T08:17:52.071Z,99169.34
2022-09-15T08:20:22.383Z,99172.12
2022-09-15T08:22:53.885Z,99172.12
2022-09-15T08:25:24.532Z,99162.02
2022-09-15T08:27:56.570Z,99162.02
2022-09-15T08:30:28.294Z,99163.23
2022-09-15T08:32:58.851Z,99156.13
2022-09-15T08:35:30.580Z,99156.27
2022-09-15T08:38:00.811Z,99156.27
2022-09-15T08:40:34.543Z,99149.75
2022-09-15T08:43:07.915Z,99149.75
2022-09-15T08:45:41.792Z,99133.54
2022-09-15T08:48:16.801Z,99134.92
2022-09-15T08:50:50.408Z,99136.82
2022-09-15T08:53:29.605Z,99138.45
2022-09-15T08:56:07.081Z,99138.45
2022-09-15T08:58:37.766Z,99139.91
2022-09-15T09:01:30.711Z,99133.39
2022-09-15T09:04:04.207Z,99133.39
2022-09-15T09:07:03.300Z,99133.72
2022-09-15T09:10:12.741Z,99127.05
2022-09-15T09:12:51.516Z,99106.26
2022-09-15T09:15:33.964Z,99114.16
2022-09-15T09:18:33.020Z,99114.16
2022-09-15T09:21:16.536Z,99107.05
2022-09-15T09:24:05.689Z,99085.08
2022-09-15T09:26:37.576Z,99085.08
2022-09-15T09:29:27.152Z,99081.59
2022-09-15T09:31:58.658Z,99089.31
2022-09-15T09:34:39.023Z,99091.05
2022-09-15T09:37:13.150Z,99075.42
2022-09-15T09:39:43.656Z,99067.26
2022-09-15T09:42:18.923Z,99067.26
2022-09-15T09:44:49.425Z,99078.27
2022-09-15T09:47:20.363Z,99078.27
2022-09-15T09:49:50.740Z,99072.75
2022-09-15T09:52:38.959Z,99072.75
2022-09-15T09:55:20.806Z,99070.47
2022-09-15T09:57:52.754Z,99070.47
2022-09-15T10:00:35.064Z,99065.92
2022-09-15T10:03:23.226Z,99065.92
2022-09-15T10:06:17.534Z,99065.33
2022-09-15T10:11:57.969Z,99059.64
2022-09-15T10:14:40.484Z,99059.00
2022-09-15T10:17:16.721Z,99053.64
2022-09-15T10:20:14.830Z,99047.08
2022-09-15T10:22:46.818Z,99044.39
2022-09-15T10:25:35.668Z,99044.39
2022-09-15T10:28:15.844Z,99048.63
2022-09-15T10:31:07.113Z,99048.63
2022-09-15T10:33:40.253Z,99047.47
2022-09-15T10:36:21.988Z,99054.14
2022-09-15T10:39:16.382Z,99054.14
2022-09-15T10:41:50.397Z,99042.16
2022-09-15T10:44:28.087Z,99035.77
2022-09-15T10:47:16.980Z,99027.92
2022-09-15T10:50:06.276Z,99027.92
2022-09-15T10:53:03.229Z,99034.11
2022-09-15T10:55:53.658Z,99042.16
2022-09-15T10:58:29.679Z,99037.86
2022-09-15T11:01:15.445Z,99035.44
2022-09-15T11:04:14.120Z,99036.97
2022-09-15T11:06:55.279Z,99036.97
2022-09-15T11:09:31.109Z,99021.45
2022-09-15T11:12:29.574Z,99030.44
2022-09-15T11:15:09.056Z,99041.48
2022-09-15T11:17:57.832Z,99041.48
2022-09-15T11:20:50.567Z,99027.16
2022-09-15T11:23:32.510Z,99030.45
2022-09-15T11:26:14.114Z,99032.79
2022-09-15T11:28:53.062Z,99025.00
2022-09-15T11:31:32.121Z,99025.00
2022-09-15T11:34:06.748Z,99017.27
2022-09-15T11:36:51.326Z,99014.42
2022-09-15T11:39:33.180Z,99014.42
2022-09-15T11:45:31.454Z,99001.67
2022-09-15T11:48:14.447Z,99001.67
2022-09-15T11:50:51.751Z,99003.59
2022-09-15T11:54:15.304Z,99003.59
2022-09-15T11:56:47.503Z,99007.95
2022-09-15T11:59:35.496Z,98995.24
2022-09-15T12:02:35.172Z,99005.78
2022-09-15T12:05:20.099Z,98995.53
2022-09-15T12:08:08.562Z,99002.38
2022-09-15T12:10:42.086Z,99002.38
2022-09-15T12:13:22.034Z,98994.28
2022-09-15T12:15:53.875Z,98994.28
2022-09-15T12:18:41.776Z,98996.75
2022-09-15T12:21:32.486Z,98999.57
2022-09-15T12:24:23.135Z,98993.52
2022-09-15T12:26:53.559Z,98992.30
2022-09-15T12:29:29.952Z,98995.59
2022-09-15T12:32:21.846Z,98995.59
2022-09-15T12:35:03.903Z,98988.97
2022-09-15T12:37:49.353Z,98990.14
2022-09-15T12:40:28.772Z,98990.14
2022-09-15T12:43:01.915Z,98987.84
2022-09-15T12:45:35.293Z,98984.98
2022-09-15T12:48:14.316Z,98984.98
2022-09-15T12:50:53.502Z,98979.41
2022-09-15T12:53:29.723Z,98988.00
2022-09-15T12:56:02.819Z,98994.64
2022-09-15T12:58:39.697Z,98994.64
2022-09-15T13:01:25.168Z,98986.05
2022-09-15T13:04:03.388Z,98985.97
2022-09-15T13:06:34.591Z,98985.97
2022-09-15T13:09:08.483Z,98989.41
2022-09-15T13:11:42.373Z,98994.22
2022-09-15T13:14:15.623Z,98997.73
2022-09-15T13:17:05.085Z,98991.86
2022-09-15T13:19:38.409Z,98991.86
2022-09-15T13:22:32.784Z,98984.38
2022-09-15T13:25:15.769Z,98984.38
2022-09-15T13:27:57.805Z,98983.86
2022-09-15T13:30:56.655Z,98983.86
2022-09-15T13:40:21.616Z,98969.91
2022-09-15T13:43:12.994Z,98978.28
2022-09-15T13:46:16.746Z,98975.09
2022-09-15T13:49:18.915Z,98977.99
2022-09-15T13:52:04.895Z,98977.99
2022-09-15T13:54:36.184Z,98984.65
2022-09-15T13:57:08.330Z,98984.65
2022-09-15T13:59:46.052Z,98980.02
2022-09-15T14:02:16.726Z,98977.57
2022-09-15T14:04:51.057Z,98978.73
2022-09-15T14:07:26.958Z,98981.45
2022-09-15T14:10:00.040Z,98989.63
2022-09-15T14:12:30.681Z,98989.63
2022-09-15T14:15:03.163Z,98982.22
2022-09-15T14:17:33.672Z,98981.10
2022-09-15T14:20:04.131Z,98989.95
2022-09-15T14:22:35.929Z,98986.02
2022-09-15T14:25:09.003Z,98986.02
2022-09-15T14:27:42.174Z,98983.49
2022-09-15T14:30:18.784Z,98967.17
2022-09-15T14:32:54.894Z,98967.17
2022-09-15T14:35:30.956Z,98966.00
2022-09-15T14:38:05.798Z,98968.42
2022-09-15T14:40:39.547Z,98972.53
2022-09-15T14:43:39.994Z,98964.83
2022-09-15T14:46:13.098Z,98967.06
2022-09-15T14:48:43.955Z,98955.91
2022-09-15T14:51:26.679Z,98957.32
2022-09-15T14:53:59.887Z,98957.32
2022-09-15T14:56:33.213Z,98961.84
2022-09-15T14:59:06.574Z,98959.47
2022-09-15T15:01:39.909Z,98975.59
2022-09-15T15:04:33.958Z,98978.70
2022-09-15T15:10:52.175Z,98966.56
2022-09-15T15:13:22.981Z,98972.05
2022-09-15T15:30:11.959Z,98953.81
2022-09-15T15:32:40.416Z,98953.81
2022-09-15T15:38:11.631Z,98950.96
2022-09-15T15:40:47.982Z,98944.50
2022-09-15T15:43:24.062Z,98944.50
2022-09-15T15:46:00.521Z,98949.50
2022-09-15T15:48:37.867Z,98949.50
2022-09-15T15:51:09.454Z,98945.44
2022-09-15T15:53:41.871Z,98945.44
2022-09-15T15:56:13.942Z,98934.99
2022-09-15T15:58:44.782Z,98929.85
2022-09-15T16:01:22.062Z,98929.85
2022-09-15T16:03:54.042Z,98916.45
2022-09-15T16:06:33.320Z,98910.23
2022-09-15T16:09:10.877Z,98910.23
2022-09-15T16:11:48.937Z,98933.03
2022-09-15T16:14:20.055Z,98934.24
2022-09-15T16:16:54.784Z,98934.24
2022-09-15T16:19:26.622Z,98943.52
2022-09-15T16:22:00.813Z,98943.38
2022-09-15T16:24:37.170Z,98943.38
2022-09-15T16:27:13.439Z,98952.62
2022-09-15T16:29:46.829Z,98952.62
2022-09-15T16:32:23.911Z,98959.25
2022-09-15T16:34:55.590Z,98961.85
2022-09-15T16:37:28.680Z,98961.85
2022-09-15T16:40:23.859Z,98971.47
2022-09-15T16:42:58.034Z,98978.69
2022-09-15T16:45:41.546Z,98978.69
2022-09-15T16:48:15.561Z,98964.22
2022-09-15T16:51:09.077Z,98967.83
2022-09-15T16:53:22.992Z,98968.64
2022-09-15T16:55:54.632Z,98962.02
2022-09-15T16:58:25.131Z,98968.23
2022-09-15T17:00:55.878Z,98968.23
2022-09-15T17:03:27.042Z,98973.66
2022-09-15T17:06:00.049Z,98981.70
2022-09-15T17:08:33.452Z,98988.98
2022-09-15T17:11:05.292Z,98994.21
2022-09-15T17:13:35.663Z,99001.45
2022-09-15T17:16:06.621Z,98997.03
2022-09-15T17:18:38.015Z,98990.81
2022-09-15T17:21:10.652Z,98990.81
2022-09-15T17:23:46.427Z,98992.61
2022-09-15T17:26:20.297Z,98992.01
2022-09-15T17:29:00.728Z,98988.37
2022-09-15T17:31:33.280Z,98987.39
2022-09-15T17:34:03.968Z,98987.39
2022-09-15T17:36:37.715Z,98977.92
2022-09-15T17:39:08.353Z,98977.92
2022-09-15T17:41:44.496Z,98978.15
2022-09-15T17:44:21.593Z,98984.35
2022-09-15T17:46:59.290Z,98986.36
2022-09-15T17:49:35.417Z,98992.01
2022-09-15T17:52:07.420Z,98988.78
2022-09-15T17:54:49.660Z,98980.78
2022-09-15T17:57:23.195Z,98979.76
2022-09-15T17:59:53.828Z,98979.16
2022-09-15T18:02:26.815Z,98973.93
2022-09-15T18:05:11.593Z,98982.38
2022-09-15T18:07:44.969Z,98975.53
2022-09-15T18:16:08.742Z,98971.53
2022-09-15T18:21:39.669Z,98980.37
2022-09-15T18:24:24.009Z,98975.94
2022-09-15T18:27:08.661Z,98973.13
2022-09-15T18:29:47.315Z,98977.77
2022-09-15T18:32:28.292Z,98968.91
2022-09-15T18:35:08.188Z,98965.71
2022-09-15T18:37:44.667Z,98968.52
2022-09-15T18:40:20.051Z,98968.91
2022-09-15T18:42:52.213Z,98967.09
2022-09-15T18:45:23.916Z,98965.91
2022-09-15T18:47:56.338Z,98965.91
2022-09-15T18:50:28.341Z,98961.91
2022-09-15T18:52:58.756Z,98965.10
2022-09-15T18:55:29.303Z,98965.10
2022-09-15T18:58:01.117Z,98963.28
2022-09-15T19:00:32.080Z,98963.28
2022-09-15T19:03:07.600Z,98960.31
2022-09-15T19:05:38.543Z,98958.87
2022-09-15T19:08:09.486Z,98958.47
2022-09-15T19:10:41.074Z,98958.47
2022-09-15T19:13:22.061Z,98957.05
2022-09-15T19:15:58.978Z,98957.05
2022-09-15T19:18:33.834Z,98954.45
2022-09-15T19:21:12.259Z,98954.06
2022-09-15T19:23:44.634Z,98957.27
2022-09-15T19:26:21.910Z,98957.27
2022-09-15T19:29:11.178Z,98955.09
2022-09-15T19:31:41.130Z,98960.72
2022-09-15T19:34:16.340Z,98960.72
2022-09-15T19:36:50.567Z,98942.86
2022-09-15T19:39:28.728Z,98942.84
2022-09-15T19:42:09.763Z,98942.84
2022-09-15T19:44:43.772Z,98927.95
2022-09-15T19:47:40.871Z,98935.80
2022-09-15T19:50:22.279Z,98939.66
2022-09-15T19:52:59.632Z,98939.66
2022-09-15T19:55:39.600Z,98942.68
2022-09-15T19:58:10.033Z,98942.68
2022-09-15T20:00:40.318Z,98936.25
2022-09-15T20:03:10.692Z,98936.25
2022-09-15T20:05:44.213Z,98934.05
2022-09-15T20:08:22.925Z,98938.69
2022-09-15T20:10:53.612Z,98945.08
2022-09-15T20:13:32.524Z,98949.91
2022-09-15T20:16:06.764Z,98952.73
2022-09-15T20:18:39.503Z,98959.54
2022-09-15T20:21:21.737Z,98958.15
2022-09-15T20:23:47.689Z,98958.15
2022-09-15T20:26:33.546Z,98946.11
2022-09-15T20:29:07.606Z,98948.11
2022-09-15T20:31:48.047Z,98944.91
2022-09-15T20:34:33.349Z,98944.91
2022-09-15T20:37:03.284Z,98943.31
2022-09-15T20:39:34.397Z,98942.30
2022-09-15T20:42:04.908Z,98937.29
2022-09-15T20:44:35.683Z,98932.08
2022-09-15T20:47:07.719Z,98923.00
2022-09-15T20:49:55.486Z,98923.00
2022-09-15T20:52:34.646Z,98923.03
2022-09-15T20:54:51.823Z,98923.03
2022-09-15T20:57:23.597Z,98913.16
2022-09-15T20:59:53.915Z,98913.16
2022-09-15T21:02:27.335Z,98907.54
2022-09-15T21:04:57.964Z,98908.16
2022-09-15T21:07:30.941Z,98908.16
2022-09-15T21:10:01.223Z,98920.17
2022-09-15T21:12:36.050Z,98935.69
2022-09-15T21:15:12.959Z,98932.45
2022-09-15T21:17:45.628Z,98935.08
2022-09-15T21:20:17.473Z,98931.07
2022-09-15T21:23:00.541Z,98925.65
2022-09-15T21:25:38.947Z,98925.65
2022-09-15T21:28:10.374Z,98914.39
2022-09-15T21:30:41.407Z,98914.39
2022-09-15T21:33:14.833Z,98911.38
2022-09-15T21:35:46.650Z,98905.94
2022-09-15T21:38:23.551Z,98892.12
2022-09-15T21:40:53.774Z,98892.12
2022-09-15T21:43:35.525Z,98901.73
2022-09-15T21:46:08.612Z,98894.11
2022-09-15T21:48:40.126Z,98890.71
2022-09-15T21:51:11.885Z,98886.08
2022-09-15T21:53:43.186Z,98897.30
2022-09-15T21:56:14.150Z,98896.91
2022-09-15T21:58:45.764Z,98906.34
2022-09-15T22:01:27.941Z,98906.34
2022-09-15T22:04:00.867Z,98909.35
2022-09-15T22:06:33.620Z,98919.98
2022-09-15T22:09:06.816Z,98919.98
2022-09-15T22:11:37.836Z,98925.42
2022-09-15T22:14:08.576Z,98920.02
2022-09-15T22:16:40.239Z,98917.59
2022-09-15T22:19:12.431Z,98917.59
2022-09-15T22:21:43.031Z,98907.74
2022-09-15T22:24:13.859Z,98901.53
2022-09-15T22:26:48.511Z,98895.70
2022-09-15T22:29:18.818Z,98895.70
2022-09-15T22:31:49.323Z,98902.31
2022-09-15T22:34:19.813Z,98910.34
2022-09-15T22:36:50.058Z,98899.06
2022-09-15T22:39:20.366Z,98916.97
2022-09-15T22:41:50.898Z,98906.91
2022-09-15T22:44:21.343Z,98906.91
2022-09-15T22:46:51.943Z,98912.94
2022-09-15T22:49:22.394Z,98921.55
2022-09-15T22:51:52.595Z,98908.88
2022-09-15T22:54:23.279Z,98914.09
2022-09-15T22:56:53.564Z,98914.09
2022-09-15T22:59:24.024Z,98919.34
2022-09-15T23:01:54.942Z,98913.53
2022-09-15T23:04:25.194Z,98898.07
2022-09-15T23:06:55.521Z,98898.07
2022-09-15T23:09:26.338Z,98908.09
2022-09-15T23:11:56.645Z,98903.70
2022-09-15T23:14:27.404Z,98908.91
2022-09-15T23:16:57.618Z,98908.91
2022-09-15T23:19:28.121Z,98902.23
2022-09-15T23:21:58.367Z,98891.35
2022-09-15T23:24:29.335Z,98903.39
2022-09-15T23:26:59.564Z,98893.16
2022-09-15T23:29:29.978Z,98903.19
2022-09-15T23:32:00.320Z,98903.19
2022-09-15T23:34:30.682Z,98907.43
2022-09-15T23:37:01.262Z,98889.95
2022-09-15T23:39:31.566Z,98915.88
2022-09-15T23:42:03.366Z,98916.90
2022-09-15T23:44:33.752Z,98916.90
2022-09-15T23:47:04.271Z,98907.45
2022-09-15T23:49:36.051Z,98907.45
2022-09-15T23:52:07.091Z,98902.05
2022-09-15T23:54:37.639Z,98898.25
2022-09-15T23:57:08.288Z,98891.85
2022-09-15T23:59:38.805Z,98890.42
